createdAt,value
2023-03-16T00:02:37.063Z,2.73
2023-03-16T00:07:35.616Z,3.43
2023-03-16T00:12:34.755Z,3.23
2023-03-16T00:17:34.908Z,3.20
2023-03-16T00:22:33.314Z,2.47
2023-03-16T00:27:31.565Z,3.20
2023-03-16T00:32:32.114Z,3.03
2023-03-16T00:37:33.396Z,3.07
2023-03-16T00:42:34.304Z,2.80
2023-03-16T00:47:34.244Z,2.80
2023-03-16T00:52:35.451Z,4.17
2023-03-16T01:02:49.482Z,2.90
2023-03-16T01:07:52.411Z,2.47
2023-03-16T01:12:50.831Z,2.80
2023-03-16T01:17:49.262Z,2.30
2023-03-16T01:22:47.541Z,3.13
2023-03-16T01:27:47.136Z,3.13
2023-03-16T01:32:45.449Z,3.53
2023-03-16T01:37:45.204Z,2.70
2023-03-16T01:43:00.748Z,2.93
2023-03-16T01:48:01.038Z,3.10
2023-03-16T01:52:59.466Z,2.97
2023-03-16T01:57:59.206Z,2.93
2023-03-16T02:03:02.208Z,2.07
2023-03-16T02:08:12.631Z,3.03
2023-03-16T02:13:12.809Z,2.57
2023-03-16T02:18:11.250Z,2.40
2023-03-16T02:23:18.556Z,2.50
2023-03-16T02:28:27.086Z,2.17
2023-03-16T02:33:27.271Z,2.77
2023-03-16T02:38:26.347Z,2.47
2023-03-16T02:43:29.830Z,2.80
2023-03-16T02:48:48.952Z,2.80
2023-03-16T02:53:47.311Z,2.87
2023-03-16T02:58:46.211Z,2.90
2023-03-16T03:03:50.569Z,3.33
2023-03-16T03:08:48.924Z,3.10
2023-03-16T03:13:47.636Z,3.53
2023-03-16T03:18:52.843Z,2.83
2023-03-16T03:23:51.747Z,3.67
2023-03-16T03:28:49.810Z,3.90
2023-03-16T03:33:48.294Z,3.93
2023-03-16T03:38:49.723Z,3.20
2023-03-16T03:43:51.055Z,3.17
2023-03-16T03:48:50.346Z,2.97
2023-03-16T03:53:50.091Z,3.20
2023-03-16T03:58:59.335Z,3.13
2023-03-16T04:04:16.427Z,3.63
2023-03-16T04:09:16.205Z,3.50
2023-03-16T04:14:16.083Z,3.00
2023-03-16T04:19:15.452Z,3.50
2023-03-16T04:24:15.877Z,4.10
2023-03-16T04:29:14.939Z,2.80
2023-03-16T04:34:14.151Z,4.10
2023-03-16T04:39:12.539Z,3.93
2023-03-16T04:44:12.657Z,4.20
2023-03-16T04:49:11.714Z,4.13
2023-03-16T04:54:13.667Z,4.60
2023-03-16T04:59:15.924Z,4.43
2023-03-16T05:04:19.958Z,4.80
2023-03-16T05:09:20.821Z,3.83
2023-03-16T05:14:21.172Z,4.30
2023-03-16T05:24:56.295Z,3.80
2023-03-16T05:29:55.800Z,4.00
2023-03-16T05:34:55.155Z,3.87
2023-03-16T05:39:53.705Z,6.70
2023-03-16T05:44:52.341Z,3.63
2023-03-16T05:50:11.376Z,5.33
2023-03-16T05:55:15.619Z,4.63
2023-03-16T06:00:18.268Z,3.90
2023-03-16T06:05:25.244Z,3.80
2023-03-16T06:10:23.980Z,3.53
2023-03-16T06:15:25.149Z,3.67
2023-03-16T06:20:25.587Z,3.70
2023-03-16T06:25:24.025Z,3.80
2023-03-16T06:30:23.331Z,3.67
2023-03-16T06:35:22.726Z,4.80
2023-03-16T06:40:39.497Z,3.07
2023-03-16T06:45:38.176Z,3.03
2023-03-16T06:50:36.748Z,2.77
2023-03-16T06:55:35.285Z,3.10
2023-03-16T07:00:35.245Z,2.97
2023-03-16T07:05:33.540Z,3.27
2023-03-16T07:10:32.907Z,3.43
2023-03-16T07:15:31.468Z,3.10
2023-03-16T07:20:33.237Z,2.93
2023-03-16T07:25:35.421Z,2.70
2023-03-16T07:30:34.925Z,2.17
2023-03-16T07:35:34.902Z,2.10
2023-03-16T07:40:34.649Z,1.80
2023-03-16T07:45:40.438Z,2.23
2023-03-16T07:50:40.552Z,2.10
2023-03-16T07:55:39.480Z,1.97
2023-03-16T08:00:40.051Z,2.40
2023-03-16T08:05:39.930Z,2.63
2023-03-16T08:10:44.673Z,1.67
2023-03-16T08:15:49.060Z,2.60
2023-03-16T08:20:56.728Z,1.40
2023-03-16T08:25:56.376Z,2.53
2023-03-16T08:30:58.676Z,1.70
2023-03-16T08:36:06.580Z,1.77
2023-03-16T08:41:04.878Z,1.47
2023-03-16T08:46:05.561Z,1.60
2023-03-16T08:51:17.715Z,1.60
2023-03-16T08:56:16.043Z,1.53
2023-03-16T09:01:15.624Z,1.50
2023-03-16T09:06:17.224Z,2.07
2023-03-16T09:11:18.830Z,1.50
2023-03-16T09:16:17.529Z,2.20
2023-03-16T09:21:16.993Z,1.60
2023-03-16T09:26:15.635Z,2.07
2023-03-16T09:31:19.085Z,2.70
2023-03-16T09:36:18.978Z,1.87
2023-03-16T09:41:33.754Z,1.60
2023-03-16T09:46:36.847Z,1.93
2023-03-16T09:51:43.615Z,1.50
2023-03-16T09:56:43.614Z,2.23
2023-03-16T10:02:28.163Z,2.00
2023-03-16T10:13:02.442Z,1.70
2023-03-16T10:18:06.640Z,1.70
2023-03-16T10:23:18.417Z,2.60
2023-03-16T10:28:18.729Z,1.40
2023-03-16T10:33:24.230Z,2.20
2023-03-16T10:38:38.769Z,1.50
2023-03-16T10:43:36.962Z,1.50
2023-03-16T10:48:35.617Z,1.80
2023-03-16T10:53:39.548Z,1.47
2023-03-16T10:58:42.607Z,1.60
2023-03-16T11:03:42.386Z,1.57
2023-03-16T11:08:42.306Z,1.27
2023-03-16T11:13:46.319Z,1.30
2023-03-16T11:18:49.949Z,1.50
2023-03-16T11:23:54.015Z,1.53
2023-03-16T11:28:59.352Z,1.47
2023-03-16T11:33:57.695Z,1.80
2023-03-16T11:39:06.838Z,1.30
2023-03-16T11:44:10.126Z,1.57
2023-03-16T11:49:29.177Z,1.10
2023-03-16T11:54:44.858Z,1.33
2023-03-16T12:00:01.449Z,1.63
2023-03-16T12:05:37.026Z,1.20
2023-03-16T12:10:42.011Z,1.33
2023-03-16T12:15:44.999Z,1.30
2023-03-16T12:20:51.237Z,1.17
2023-03-16T12:25:53.326Z,1.53
2023-03-16T12:30:59.713Z,1.20
2023-03-16T12:36:05.183Z,1.67
2023-03-16T12:41:17.997Z,1.13
2023-03-16T12:46:24.695Z,1.20
2023-03-16T12:51:33.393Z,1.77
2023-03-16T12:56:36.240Z,1.67
2023-03-16T13:01:40.789Z,1.20
2023-03-16T13:06:43.599Z,1.20
2023-03-16T13:11:50.132Z,1.40
2023-03-16T13:16:49.910Z,1.10
2023-03-16T13:21:48.274Z,1.23
2023-03-16T13:26:50.235Z,1.13
2023-03-16T13:31:49.045Z,1.30
2023-03-16T13:36:48.391Z,1.27
2023-03-16T13:41:59.717Z,1.50
2023-03-16T13:46:57.988Z,0.80
2023-03-16T13:51:56.338Z,0.90
2023-03-16T13:56:58.552Z,1.03
2023-03-16T14:01:59.810Z,0.80
2023-03-16T14:07:00.316Z,1.10
2023-03-16T14:12:00.125Z,1.07
2023-03-16T14:17:09.840Z,0.77
2023-03-16T14:22:12.441Z,0.97
2023-03-16T14:27:19.694Z,1.07
2023-03-16T14:32:28.542Z,0.90
2023-03-16T14:37:36.082Z,1.00
2023-03-16T14:42:36.247Z,1.00
2023-03-16T14:47:43.076Z,1.00
2023-03-16T14:52:41.436Z,0.97
2023-03-16T14:57:42.822Z,0.90
2023-03-16T15:02:43.318Z,0.90
2023-03-16T15:07:45.612Z,1.00
2023-03-16T15:12:50.692Z,0.90
2023-03-16T15:17:51.356Z,0.90
2023-03-16T15:22:51.866Z,1.10
2023-03-16T15:27:52.826Z,0.90
2023-03-16T15:32:51.487Z,0.80
2023-03-16T15:37:50.370Z,1.00
2023-03-16T15:42:48.603Z,1.23
2023-03-16T15:47:48.850Z,0.90
2023-03-16T15:52:50.680Z,0.93
2023-03-16T15:57:50.341Z,1.00
2023-03-16T16:02:50.023Z,1.20
2023-03-16T16:07:48.296Z,0.80
2023-03-16T16:12:51.535Z,1.20
2023-03-16T16:18:18.615Z,0.90
2023-03-16T16:23:10.949Z,0.80
2023-03-16T16:28:15.961Z,0.87
2023-03-16T16:33:26.757Z,1.50
2023-03-16T16:38:25.641Z,1.77
2023-03-16T16:43:32.274Z,1.27
2023-03-16T16:48:35.180Z,0.80
2023-03-16T16:53:33.679Z,0.97
2023-03-16T16:58:32.387Z,1.00
2023-03-16T17:03:31.970Z,1.13
2023-03-16T17:08:30.204Z,1.30
2023-03-16T17:13:33.875Z,0.93
2023-03-16T17:18:34.049Z,1.20
2023-03-16T17:23:35.095Z,1.37
2023-03-16T17:28:38.784Z,0.90
2023-03-16T17:33:38.363Z,1.00
2023-03-16T17:38:37.436Z,1.10
2023-03-16T17:43:35.859Z,1.20
2023-03-16T17:48:34.078Z,1.80
2023-03-16T17:53:33.693Z,1.20
2023-03-16T17:58:32.549Z,1.20
2023-03-16T18:03:30.965Z,1.30
2023-03-16T18:08:33.486Z,1.47
2023-03-16T18:13:35.366Z,1.00
2023-03-16T18:18:36.698Z,1.40
2023-03-16T18:23:36.986Z,1.90
2023-03-16T18:28:36.744Z,1.10
2023-03-16T18:33:37.078Z,1.23
2023-03-16T18:38:36.956Z,1.20
2023-03-16T18:43:36.638Z,1.57
2023-03-16T18:48:36.791Z,1.23
2023-03-16T18:53:35.050Z,1.20
2023-03-16T18:58:34.009Z,1.40
2023-03-16T19:03:42.119Z,1.47
2023-03-16T19:08:40.716Z,1.70
2023-03-16T19:13:38.941Z,1.57
2023-03-16T19:18:42.128Z,1.40
2023-03-16T19:23:40.412Z,1.63
2023-03-16T19:28:41.022Z,1.60
2023-03-16T19:33:40.652Z,1.30
2023-03-16T19:38:38.892Z,1.50
2023-03-16T19:43:37.259Z,1.60
2023-03-16T19:48:35.637Z,1.63
2023-03-16T19:53:35.236Z,1.60
2023-03-16T19:58:38.588Z,1.50
2023-03-16T20:03:38.709Z,1.53
2023-03-16T20:08:38.306Z,1.50
2023-03-16T20:13:36.949Z,1.70
2023-03-16T20:18:35.096Z,1.50
2023-03-16T20:23:33.746Z,1.83
2023-03-16T20:28:36.976Z,1.50
2023-03-16T20:33:35.299Z,1.20
2023-03-16T20:38:33.528Z,1.40
2023-03-16T20:43:34.550Z,1.83
2023-03-16T20:48:33.146Z,1.60
2023-03-16T20:53:31.404Z,1.80
2023-03-16T20:58:31.046Z,1.53
2023-03-16T21:03:33.501Z,1.90
2023-03-16T21:08:31.586Z,1.83
2023-03-16T21:13:31.983Z,2.20
2023-03-16T21:18:33.142Z,1.63
2023-03-16T21:23:31.537Z,2.00
2023-03-16T21:28:33.224Z,2.10
2023-03-16T21:33:35.076Z,2.30
2023-03-16T21:38:33.878Z,2.73
2023-03-16T21:43:32.351Z,3.07
2023-03-16T21:48:37.321Z,2.40
2023-03-16T21:53:36.427Z,2.87
2023-03-16T21:58:34.703Z,2.53
2023-03-16T22:03:50.088Z,2.63
2023-03-16T22:08:49.435Z,2.47
2023-03-16T22:13:47.770Z,2.40
2023-03-16T22:18:50.062Z,2.50
2023-03-16T22:23:48.580Z,2.80
2023-03-16T22:28:48.301Z,2.50
2023-03-16T22:33:49.205Z,2.17
2023-03-16T22:38:51.489Z,3.00
2023-03-16T22:43:49.873Z,2.50
2023-03-16T22:48:49.707Z,3.33
2023-03-16T22:53:48.436Z,2.23
2023-03-16T22:58:50.458Z,3.00
2023-03-16T23:03:51.869Z,2.43
2023-03-16T23:14:13.797Z,2.77
2023-03-16T23:19:26.851Z,2.40
2023-03-16T23:24:25.332Z,2.80
2023-03-16T23:29:24.505Z,2.27
2023-03-16T23:34:26.371Z,3.20
2023-03-16T23:39:24.417Z,2.20
2023-03-16T23:44:25.621Z,3.17
2023-03-16T23:49:27.421Z,3.07
2023-03-16T23:54:28.352Z,3.50
2023-03-16T23:59:27.506Z,2.57
